Time;durP1;ratioP1;P1;durP2;ratioP2;P2;SDS_P1;SDS_P2;PMS_P1;PMS_P2;Temp;Humidity;BMP_temperature;BMP_pressure;BME280_temperature;BME280_humidity;BME280_pressure;Samples;Min_cycle;Max_cycle;Signal;HPM_P1;HPM_P2
2023/05/04 00:00:51;;;;;;;11.63;7.90;;;6.20;99.90;;;;;;5033663;28;20048;-82
2023/05/04 00:03:17;;;;;;;12.90;6.90;;;6.20;99.90;;;;;;5035600;28;20443;-83
2023/05/04 00:05:43;;;;;;;13.47;7.50;;;6.20;99.90;;;;;;5019339;28;20041;-83
2023/05/04 00:08:08;;;;;;;12.57;7.00;;;6.20;99.90;;;;;;5015566;28;20038;-83
2023/05/04 00:10:34;;;;;;;12.33;7.27;;;6.20;99.90;;;;;;4992526;28;20122;-82
2023/05/04 00:13:00;;;;;;;12.33;7.90;;;6.10;99.90;;;;;;5002639;28;20403;-83
2023/05/04 00:15:26;;;;;;;12.37;6.93;;;6.10;99.90;;;;;;5035376;28;20060;-83
2023/05/04 00:17:58;;;;;;;11.03;7.37;;;6.10;99.90;;;;;;5019067;28;20102;-82
2023/05/04 00:20:23;;;;;;;10.97;7.53;;;6.10;99.90;;;;;;5002554;28;20045;-82
2023/05/04 00:22:49;;;;;;;9.50;6.77;;;6.10;99.90;;;;;;5019175;28;20045;-83
2023/05/04 00:25:15;;;;;;;13.63;7.50;;;6.10;99.90;;;;;;5021185;28;20045;-83
2023/05/04 00:27:41;;;;;;;10.57;6.50;;;6.00;99.90;;;;;;5038724;28;20559;-83
2023/05/04 00:30:07;;;;;;;15.43;7.93;;;6.00;99.90;;;;;;5054887;28;20487;-82
2023/05/04 00:32:33;;;;;;;16.70;8.00;;;6.00;99.90;;;;;;5018554;28;20029;-83
2023/05/04 00:34:59;;;;;;;14.33;7.80;;;6.00;99.90;;;;;;5038168;28;20442;-83
2023/05/04 00:37:24;;;;;;;16.60;7.30;;;5.90;99.90;;;;;;5054964;28;20053;-82
2023/05/04 00:39:50;;;;;;;13.17;7.50;;;5.90;99.90;;;;;;5031775;28;20510;-83
2023/05/04 00:42:16;;;;;;;10.47;7.40;;;5.90;99.90;;;;;;5038480;28;20059;-83
2023/05/04 00:44:43;;;;;;;13.47;7.60;;;5.90;99.90;;;;;;5054869;28;20033;-83
2023/05/04 00:47:10;;;;;;;11.83;8.00;;;5.90;99.90;;;;;;5038492;28;20039;-82
2023/05/04 00:49:35;;;;;;;12.47;7.80;;;5.90;99.90;;;;;;5054785;28;20399;-83
2023/05/04 00:52:03;;;;;;;10.90;7.23;;;5.80;99.90;;;;;;5054482;28;20054;-83
2023/05/04 00:54:29;;;;;;;17.40;9.03;;;5.80;99.90;;;;;;5021798;28;20120;-83
2023/05/04 00:56:55;;;;;;;15.23;8.47;;;5.80;99.90;;;;;;5037897;28;20503;-83
2023/05/04 00:59:21;;;;;;;12.77;7.93;;;5.80;99.90;;;;;;5038212;28;20049;-83
2023/05/04 01:01:47;;;;;;;11.43;7.93;;;5.80;99.90;;;;;;5021682;28;20044;-83
2023/05/04 01:04:14;;;;;;;11.73;7.40;;;5.80;99.90;;;;;;5037778;28;20055;-82
2023/05/04 01:06:48;;;;;;;12.80;7.77;;;5.80;99.90;;;;;;5052322;28;20048;-82
2023/05/04 01:09:42;;;;;;;13.77;8.33;;;5.80;99.90;;;;;;5054252;28;20083;-83
2023/05/04 01:12:19;;;;;;;12.37;7.83;;;5.80;99.90;;;;;;5054196;28;20139;-82
2023/05/04 01:14:45;;;;;;;12.40;7.80;;;5.80;99.90;;;;;;5054120;28;20488;-83
2023/05/04 01:17:11;;;;;;;13.23;8.00;;;5.80;99.90;;;;;;5053779;28;20190;-82
2023/05/04 01:19:37;;;;;;;12.57;7.73;;;5.80;99.90;;;;;;5021348;28;20068;-83
2023/05/04 01:22:02;;;;;;;11.57;7.40;;;5.80;99.90;;;;;;5021090;28;20139;-82
2023/05/04 01:24:29;;;;;;;14.13;8.47;;;5.70;99.90;;;;;;5053916;28;20032;-83
2023/05/04 01:27:01;;;;;;;12.43;7.80;;;5.70;99.90;;;;;;5053616;28;20434;-83
2023/05/04 01:29:34;;;;;;;13.40;7.95;;;5.70;99.90;;;;;;5053820;28;20055;-83
2023/05/04 01:32:01;;;;;;;13.97;7.87;;;5.70;99.90;;;;;;5036545;28;20044;-83
2023/05/04 01:34:27;;;;;;;14.70;7.63;;;5.70;99.90;;;;;;5052877;28;20040;-83
2023/05/04 01:36:53;;;;;;;10.37;6.93;;;5.70;99.90;;;;;;5037136;28;20089;-83
2023/05/04 01:39:19;;;;;;;16.80;8.40;;;5.70;99.90;;;;;;5037075;28;20048;-83
2023/05/04 01:41:45;;;;;;;12.93;7.93;;;5.70;99.90;;;;;;5054101;28;20521;-82
2023/05/04 01:44:11;;;;;;;13.70;8.20;;;5.70;99.90;;;;;;5004891;28;20119;-83
2023/05/04 01:46:37;;;;;;;11.90;8.10;;;5.70;99.90;;;;;;5053703;28;20040;-82
2023/05/04 01:49:03;;;;;;;13.83;7.67;;;5.70;99.90;;;;;;5037268;28;20385;-83
2023/05/04 01:51:28;;;;;;;16.07;8.60;;;5.70;99.90;;;;;;5052692;28;20042;-83
2023/05/04 01:53:54;;;;;;;14.50;8.37;;;5.70;99.90;;;;;;5037329;28;20040;-82
2023/05/04 01:56:21;;;;;;;11.73;7.73;;;5.70;99.90;;;;;;5036892;28;20526;-82
2023/05/04 01:58:46;;;;;;;11.90;8.17;;;5.70;99.90;;;;;;5036552;28;20037;-83
2023/05/04 02:01:12;;;;;;;11.43;7.90;;;5.70;99.90;;;;;;5053496;28;20051;-83
2023/05/04 02:03:38;;;;;;;14.27;8.60;;;5.70;99.90;;;;;;5020357;28;20037;-83
2023/05/04 02:06:04;;;;;;;11.87;7.37;;;5.70;99.90;;;;;;5020229;28;20131;-83
2023/05/04 02:08:30;;;;;;;15.97;8.67;;;5.70;99.90;;;;;;5037012;28;20131;-83
2023/05/04 02:10:55;;;;;;;17.40;9.47;;;5.70;99.90;;;;;;5053434;28;20041;-82
2023/05/04 02:13:21;;;;;;;14.40;8.43;;;5.70;99.90;;;;;;5037046;28;20040;-83
2023/05/04 02:15:47;;;;;;;12.80;8.37;;;5.70;99.90;;;;;;5020478;28;20044;-83
2023/05/04 02:18:13;;;;;;;15.53;8.03;;;5.70;99.90;;;;;;5037030;28;20045;-83
2023/05/04 02:20:38;;;;;;;14.27;8.73;;;5.70;99.90;;;;;;5020353;28;20045;-83
2023/05/04 02:23:04;;;;;;;12.53;8.50;;;5.70;99.90;;;;;;5036691;28;21161;-83
2023/05/04 02:25:30;;;;;;;15.03;8.90;;;5.70;99.90;;;;;;5001695;28;20063;-82
2023/05/04 02:27:56;;;;;;;17.47;8.73;;;5.70;99.90;;;;;;5052947;28;20423;-83
2023/05/04 02:30:21;;;;;;;14.43;8.40;;;5.70;99.90;;;;;;5036943;28;20041;-83
2023/05/04 02:32:47;;;;;;;15.97;8.50;;;5.70;99.90;;;;;;5016860;28;20060;-83
2023/05/04 02:35:13;;;;;;;13.23;8.40;;;5.70;99.90;;;;;;5028064;28;20098;-83
2023/05/04 02:37:39;;;;;;;19.60;8.90;;;5.70;99.90;;;;;;5036869;28;20037;-83
2023/05/04 02:40:05;;;;;;;15.63;8.77;;;5.70;99.90;;;;;;5020588;28;20066;-83
2023/05/04 02:42:31;;;;;;;14.83;8.93;;;5.70;99.90;;;;;;5053282;28;20067;-83
2023/05/04 02:44:56;;;;;;;11.83;8.37;;;5.70;99.90;;;;;;5036792;28;20040;-83
2023/05/04 02:47:22;;;;;;;12.30;8.30;;;5.70;99.90;;;;;;5053243;28;20479;-83
2023/05/04 02:49:48;;;;;;;14.07;8.33;;;5.70;99.90;;;;;;5036390;28;20045;-83
2023/05/04 02:52:13;;;;;;;14.80;8.47;;;5.70;99.90;;;;;;5036333;28;20132;-83
2023/05/04 02:54:39;;;;;;;16.13;9.00;;;5.70;99.90;;;;;;5052909;28;20044;-83
2023/05/04 02:57:05;;;;;;;15.47;8.87;;;5.70;99.90;;;;;;5036629;28;20101;-83
2023/05/04 02:59:31;;;;;;;11.57;8.27;;;5.70;99.90;;;;;;5053339;28;20052;-83
2023/05/04 03:01:57;;;;;;;14.60;8.40;;;5.70;99.90;;;;;;5053470;28;20032;-83
2023/05/04 03:04:23;;;;;;;12.73;8.67;;;5.70;99.90;;;;;;5040079;28;20487;-83
2023/05/04 03:06:48;;;;;;;15.73;9.17;;;5.70;99.90;;;;;;5007264;28;20044;-83
2023/05/04 03:09:14;;;;;;;16.63;8.93;;;5.70;99.90;;;;;;5040224;28;20480;-83
2023/05/04 03:11:40;;;;;;;17.30;8.63;;;5.70;99.90;;;;;;5040213;28;20044;-83
2023/05/04 03:14:06;;;;;;;15.50;8.50;;;5.70;99.90;;;;;;5040086;28;20056;-83
2023/05/04 03:16:32;;;;;;;14.37;8.33;;;5.70;99.90;;;;;;5039707;28;20110;-84
2023/05/04 03:18:57;;;;;;;15.50;8.83;;;5.70;99.90;;;;;;5023344;28;20086;-82
2023/05/04 03:21:23;;;;;;;16.43;8.83;;;5.70;99.90;;;;;;5023008;28;20517;-83
2023/05/04 03:23:49;;;;;;;12.97;8.97;;;5.70;99.90;;;;;;5037899;28;20438;-83
2023/05/04 03:26:14;;;;;;;15.93;8.87;;;5.70;99.90;;;;;;5014533;28;20061;-83
2023/05/04 03:28:40;;;;;;;16.80;9.50;;;5.70;99.90;;;;;;5039528;28;20131;-82
2023/05/04 03:31:06;;;;;;;22.67;10.53;;;5.70;99.90;;;;;;5056356;28;20032;-83
2023/05/04 03:33:31;;;;;;;13.93;9.40;;;5.70;99.90;;;;;;5039561;28;20047;-83
2023/05/04 03:35:57;;;;;;;16.77;9.23;;;5.70;99.90;;;;;;5039642;28;20106;-83
2023/05/04 03:38:23;;;;;;;17.10;9.70;;;5.70;99.90;;;;;;5039467;28;20049;-83
2023/05/04 03:40:48;;;;;;;19.13;9.50;;;5.70;99.90;;;;;;5039629;28;20044;-83
2023/05/04 03:43:14;;;;;;;16.00;9.70;;;5.70;99.90;;;;;;5038966;28;20047;-83
2023/05/04 03:45:40;;;;;;;15.33;9.43;;;5.70;99.90;;;;;;5054869;28;20086;-83
2023/05/04 03:48:05;;;;;;;14.17;8.73;;;5.70;99.90;;;;;;5019055;28;20044;-83
2023/05/04 03:50:31;;;;;;;15.53;9.77;;;5.70;99.90;;;;;;5053741;28;20044;-83
2023/05/04 03:52:57;;;;;;;18.37;9.90;;;5.70;99.90;;;;;;5022542;28;20040;-83
2023/05/04 03:55:22;;;;;;;15.23;9.70;;;5.70;99.90;;;;;;5006587;28;20098;-83
2023/05/04 03:57:48;;;;;;;16.57;10.20;;;5.70;99.90;;;;;;5038923;28;20064;-83
2023/05/04 04:00:14;;;;;;;16.87;10.00;;;5.70;99.90;;;;;;5006393;28;20060;-84
2023/05/04 04:02:40;;;;;;;16.70;9.73;;;5.70;99.90;;;;;;5022121;28;20387;-82
2023/05/04 04:05:06;;;;;;;19.03;10.50;;;5.70;99.90;;;;;;5055423;28;20062;-83
2023/05/04 04:07:32;;;;;;;14.73;9.47;;;5.70;99.90;;;;;;5055338;28;20047;-82
2023/05/04 04:09:58;;;;;;;16.27;10.47;;;5.70;99.90;;;;;;5055736;28;20048;-83
2023/05/04 04:12:23;;;;;;;15.90;10.30;;;5.70;99.90;;;;;;5022311;28;20456;-83
2023/05/04 04:14:51;;;;;;;20.70;10.30;;;5.70;99.90;;;;;;5037638;28;20033;-83
2023/05/04 04:17:17;;;;;;;15.87;10.33;;;5.70;99.90;;;;;;5038572;28;20047;-83
2023/05/04 04:19:43;;;;;;;17.77;10.33;;;5.70;99.90;;;;;;5038651;28;20407;-84
2023/05/04 04:22:08;;;;;;;19.73;10.00;;;5.70;99.90;;;;;;5038404;28;20059;-84
2023/05/04 04:24:34;;;;;;;17.50;10.57;;;5.80;99.90;;;;;;5038491;28;20098;-84
2023/05/04 04:27:00;;;;;;;15.10;9.47;;;5.80;99.90;;;;;;5054917;28;20107;-83
2023/05/04 04:29:26;;;;;;;17.03;10.13;;;5.80;99.90;;;;;;5038614;28;20056;-84
2023/05/04 04:31:51;;;;;;;17.30;10.97;;;5.80;99.90;;;;;;5038095;28;20045;-84
2023/05/04 04:34:17;;;;;;;20.30;10.80;;;5.80;99.90;;;;;;5038206;28;20036;-84
2023/05/04 04:36:43;;;;;;;19.50;10.27;;;5.80;99.90;;;;;;5054976;28;20442;-83
2023/05/04 04:39:10;;;;;;;14.67;9.20;;;5.80;99.90;;;;;;5054759;28;20041;-84
2023/05/04 04:41:36;;;;;;;17.30;10.47;;;5.80;99.90;;;;;;5021979;28;20121;-83
2023/05/04 04:44:02;;;;;;;16.87;9.23;;;5.80;99.90;;;;;;5054249;28;20036;-84
2023/05/04 04:46:28;;;;;;;18.10;10.57;;;5.80;99.90;;;;;;5021702;28;20044;-84
2023/05/04 04:48:54;;;;;;;17.83;10.40;;;5.80;99.90;;;;;;5037966;28;20061;-84
2023/05/04 04:51:20;;;;;;;16.57;10.10;;;5.80;99.90;;;;;;5055045;28;20036;-84
2023/05/04 04:53:46;;;;;;;17.13;10.67;;;5.80;99.90;;;;;;5054940;28;20600;-84
2023/05/04 04:56:12;;;;;;;17.20;10.27;;;5.90;99.90;;;;;;5038190;28;20045;-84
2023/05/04 04:58:37;;;;;;;16.40;9.73;;;5.90;99.90;;;;;;5037633;28;20480;-84
2023/05/04 05:01:04;;;;;;;16.37;10.07;;;5.90;99.90;;;;;;5034506;28;20124;-84
2023/05/04 05:03:30;;;;;;;19.43;10.60;;;5.90;99.90;;;;;;5052962;28;20049;-84
2023/05/04 05:05:56;;;;;;;18.17;10.23;;;6.00;99.90;;;;;;5054304;28;20566;-83
2023/05/04 05:08:22;;;;;;;17.73;10.33;;;6.00;99.90;;;;;;5037837;28;20049;-84
2023/05/04 05:10:48;;;;;;;19.53;10.03;;;6.00;99.90;;;;;;5037479;28;20033;-83
2023/05/04 05:13:13;;;;;;;17.30;9.83;;;6.00;99.90;;;;;;5036540;28;20041;-83
2023/05/04 05:15:39;;;;;;;18.33;10.23;;;6.00;99.90;;;;;;5053975;28;20082;-83
2023/05/04 05:18:05;;;;;;;16.50;10.43;;;6.00;99.90;;;;;;5054084;28;20075;-84
2023/05/04 05:20:32;;;;;;;17.40;10.27;;;6.10;99.90;;;;;;5017992;28;20476;-82
2023/05/04 05:22:58;;;;;;;16.90;10.37;;;6.10;99.90;;;;;;5052256;28;20045;-83
2023/05/04 05:25:23;;;;;;;16.27;9.67;;;6.20;99.90;;;;;;5053665;28;20728;-84
2023/05/04 05:27:49;;;;;;;17.90;10.07;;;6.20;99.90;;;;;;5037227;28;20044;-83
2023/05/04 05:30:15;;;;;;;14.60;10.40;;;6.30;99.90;;;;;;5032604;28;20037;-83
2023/05/04 05:32:41;;;;;;;17.40;9.67;;;6.30;99.90;;;;;;5021466;28;20472;-83
2023/05/04 05:35:08;;;;;;;16.00;10.17;;;6.30;99.90;;;;;;5020827;28;20509;-84
2023/05/04 05:37:34;;;;;;;18.17;9.77;;;6.40;99.90;;;;;;5036925;28;20041;-83
2023/05/04 05:39:59;;;;;;;17.30;10.30;;;6.40;99.90;;;;;;5048716;28;20045;-84
2023/05/04 05:42:27;;;;;;;17.27;10.20;;;6.40;99.90;;;;;;5035655;28;20098;-84
2023/05/04 05:44:53;;;;;;;15.83;9.73;;;6.50;99.90;;;;;;5053197;28;20044;-84
2023/05/04 05:47:19;;;;;;;19.27;9.97;;;6.50;99.90;;;;;;5036554;28;20407;-83
2023/05/04 05:49:44;;;;;;;17.57;10.30;;;6.50;99.90;;;;;;5056006;28;20043;-83
2023/05/04 05:52:10;;;;;;;19.00;10.33;;;6.60;99.90;;;;;;5040699;28;20045;-83
2023/05/04 05:54:36;;;;;;;15.50;10.00;;;6.60;99.90;;;;;;5053608;28;20040;-83
2023/05/04 05:57:01;;;;;;;15.47;10.77;;;6.70;99.90;;;;;;5053078;28;20044;-83
2023/05/04 05:59:27;;;;;;;16.47;9.93;;;6.80;99.90;;;;;;5045017;28;20125;-83
2023/05/04 06:01:53;;;;;;;20.60;10.10;;;6.80;99.90;;;;;;5035823;28;20119;-84
2023/05/04 06:04:19;;;;;;;17.67;9.97;;;6.90;99.90;;;;;;5037245;28;20037;-83
2023/05/04 06:06:45;;;;;;;16.37;9.87;;;6.90;99.90;;;;;;5037030;28;20044;-83
2023/05/04 06:09:11;;;;;;;15.37;9.43;;;6.90;99.90;;;;;;5052849;28;20537;-83
2023/05/04 06:11:37;;;;;;;18.00;10.90;;;7.00;99.90;;;;;;5052997;28;20044;-84
2023/05/04 06:14:02;;;;;;;16.03;9.93;;;7.10;99.90;;;;;;5036431;28;20032;-83
2023/05/04 06:16:28;;;;;;;17.83;10.03;;;7.10;99.90;;;;;;5020211;28;20028;-84
2023/05/04 06:18:54;;;;;;;16.80;10.10;;;7.20;99.90;;;;;;5053178;28;20071;-84
2023/05/04 06:21:20;;;;;;;17.47;10.37;;;7.30;99.90;;;;;;5053389;28;20775;-84
2023/05/04 06:23:46;;;;;;;18.57;9.80;;;7.40;99.90;;;;;;5036706;28;20055;-84
2023/05/04 06:26:12;;;;;;;17.47;9.93;;;7.40;99.90;;;;;;5052380;28;20052;-84
2023/05/04 06:28:37;;;;;;;17.73;10.53;;;7.50;99.90;;;;;;5036626;28;20123;-84
2023/05/04 06:31:03;;;;;;;16.33;9.83;;;7.50;99.90;;;;;;5037065;28;20037;-83
2023/05/04 06:33:29;;;;;;;14.50;9.60;;;7.60;99.90;;;;;;5020460;28;20482;-83
2023/05/04 06:35:55;;;;;;;16.63;10.17;;;7.60;99.90;;;;;;5036712;28;20044;-84
2023/05/04 06:38:20;;;;;;;20.37;9.47;;;7.70;99.90;;;;;;5039057;28;20411;-83
2023/05/04 06:40:47;;;;;;;15.87;9.57;;;7.80;99.90;;;;;;5040311;28;20105;-84
2023/05/04 06:43:13;;;;;;;15.80;9.90;;;7.90;99.90;;;;;;5057205;28;20479;-84
2023/05/04 06:45:38;;;;;;;19.70;10.33;;;8.10;99.90;;;;;;5057171;28;20174;-84
2023/05/04 06:48:05;;;;;;;16.10;10.20;;;8.20;99.90;;;;;;5057290;28;20071;-84
2023/05/04 06:50:32;;;;;;;14.03;9.53;;;8.30;99.90;;;;;;5040650;28;20597;-85
2023/05/04 06:53:16;;;;;;;18.57;9.53;;;8.30;99.90;;;;;;5040047;28;20476;-84
2023/05/04 06:55:41;;;;;;;13.37;9.73;;;8.30;99.90;;;;;;5023974;28;20131;-84
2023/05/04 06:58:07;;;;;;;17.20;9.77;;;8.40;99.90;;;;;;5022827;28;20594;-84
2023/05/04 07:00:33;;;;;;;15.53;9.53;;;8.50;99.90;;;;;;5055948;28;20041;-84
2023/05/04 07:02:59;;;;;;;15.73;9.27;;;8.60;99.90;;;;;;5056595;28;20123;-84
2023/05/04 07:05:25;;;;;;;15.27;9.60;;;8.70;99.90;;;;;;5040215;28;20119;-84
2023/05/04 07:07:51;;;;;;;13.27;9.10;;;8.80;99.90;;;;;;5056643;28;20578;-84
2023/05/04 07:10:18;;;;;;;12.90;9.23;;;8.90;99.90;;;;;;5056691;28;20049;-84
2023/05/04 07:12:44;;;;;;;15.87;10.00;;;9.00;99.90;;;;;;5007306;28;20032;-85
2023/05/04 07:15:10;;;;;;;13.00;8.73;;;9.00;99.90;;;;;;5023669;28;20036;-84
2023/05/04 07:17:37;;;;;;;14.80;9.43;;;9.20;99.90;;;;;;5056250;28;20387;-84
2023/05/04 07:20:04;;;;;;;14.47;9.27;;;9.30;99.90;;;;;;5056585;28;20048;-84
2023/05/04 07:22:32;;;;;;;11.97;9.17;;;9.40;99.90;;;;;;5040659;28;20415;-84
2023/05/04 07:24:59;;;;;;;14.03;9.03;;;9.50;99.90;;;;;;5024034;28;20109;-84
2023/05/04 07:27:24;;;;;;;13.83;8.97;;;9.50;99.90;;;;;;5056046;28;20057;-84
2023/05/04 07:29:50;;;;;;;13.47;8.93;;;9.60;99.90;;;;;;5056504;28;20106;-84
2023/05/04 07:32:16;;;;;;;19.90;9.60;;;9.70;99.90;;;;;;5040055;28;20046;-85
2023/05/04 07:34:45;;;;;;;14.47;9.07;;;9.70;99.90;;;;;;5023137;28;20120;-84
2023/05/04 07:37:12;;;;;;;15.60;8.33;;;9.90;99.90;;;;;;5056225;28;20454;-84
2023/05/04 07:39:38;;;;;;;15.23;8.43;;;10.10;99.90;;;;;;5039751;28;20075;-85
2023/05/04 07:42:04;;;;;;;18.47;8.90;;;10.20;99.90;;;;;;5055810;28;20469;-85
2023/05/04 07:44:30;;;;;;;13.83;8.97;;;10.30;99.90;;;;;;5036155;28;20048;-84
2023/05/04 07:47:00;;;;;;;15.37;9.43;;;10.40;99.90;;;;;;5005693;28;20067;-84
2023/05/04 07:49:26;;;;;;;13.87;8.43;;;10.40;99.90;;;;;;5054845;28;20048;-84
2023/05/04 07:51:52;;;;;;;15.07;8.37;;;10.50;99.90;;;;;;5039030;28;20098;-84
2023/05/04 07:54:18;;;;;;;13.30;8.33;;;10.70;99.90;;;;;;5039008;28;20037;-84
2023/05/04 07:56:44;;;;;;;12.77;8.83;;;10.80;99.90;;;;;;5039407;28;20044;-84
2023/05/04 07:59:09;;;;;;;13.60;8.63;;;11.00;99.90;;;;;;5055873;28;20044;-84
2023/05/04 08:01:35;;;;;;;14.20;8.20;;;11.10;99.90;;;;;;5022727;28;20376;-84
2023/05/04 08:04:01;;;;;;;13.47;8.27;;;11.40;99.90;;;;;;5022728;28;20036;-84
2023/05/04 08:06:27;;;;;;;12.07;8.17;;;11.50;99.90;;;;;;5022752;28;20086;-84
2023/05/04 08:08:53;;;;;;;13.27;8.67;;;11.70;99.90;;;;;;5055488;28;20044;-84
2023/05/04 08:11:19;;;;;;;12.43;8.10;;;11.90;99.90;;;;;;5039268;28;20054;-83
2023/05/04 08:13:45;;;;;;;14.27;7.77;;;12.00;99.90;;;;;;5039040;28;20083;-83
2023/05/04 08:16:11;;;;;;;11.27;7.67;;;12.20;99.90;;;;;;5039987;28;20044;-84
2023/05/04 08:18:37;;;;;;;10.97;8.20;;;12.30;99.90;;;;;;5039334;28;20051;-84
2023/05/04 08:21:03;;;;;;;10.47;7.90;;;12.40;99.90;;;;;;5038997;28;20044;-83
2023/05/04 08:23:30;;;;;;;16.07;8.40;;;12.60;99.90;;;;;;5022570;28;20048;-84
2023/05/04 08:25:56;;;;;;;12.00;8.27;;;12.80;99.90;;;;;;5038822;28;20056;-84
2023/05/04 08:28:22;;;;;;;14.20;7.77;;;12.90;99.90;;;;;;5055214;28;20054;-84
2023/05/04 08:30:48;;;;;;;11.97;7.37;;;13.00;99.90;;;;;;5038980;28;20071;-84
2023/05/04 08:33:13;;;;;;;12.20;7.50;;;13.20;99.90;;;;;;5055255;28;20048;-84
2023/05/04 08:35:39;;;;;;;11.30;7.40;;;13.50;99.90;;;;;;5038621;28;20041;-83
2023/05/04 08:38:06;;;;;;;12.05;7.65;;;13.70;99.90;;;;;;5022286;28;20123;-84
2023/05/04 08:40:32;;;;;;;11.13;7.40;;;13.90;99.90;;;;;;5055478;28;20037;-83
2023/05/04 08:42:58;;;;;;;12.80;7.47;;;14.00;99.90;;;;;;5038337;28;20044;-84
2023/05/04 08:45:24;;;;;;;12.10;7.57;;;14.10;99.90;;;;;;5055103;28;20458;-84
2023/05/04 08:47:50;;;;;;;10.05;7.18;;;14.00;99.90;;;;;;5037990;28;20075;-84
2023/05/04 08:50:16;;;;;;;11.27;7.05;;;14.00;99.90;;;;;;5037792;28;20048;-84
2023/05/04 08:52:46;;;;;;;13.00;7.47;;;13.90;99.90;;;;;;5037599;28;20118;-84
2023/05/04 08:55:12;;;;;;;10.45;7.53;;;14.00;99.90;;;;;;5038505;28;20094;-84
2023/05/04 08:57:41;;;;;;;8.90;6.80;;;14.20;99.90;;;;;;5038327;28;20094;-84
2023/05/04 09:00:09;;;;;;;10.50;6.82;;;14.40;99.90;;;;;;5037849;28;20094;-84
2023/05/04 09:02:37;;;;;;;13.85;7.28;;;14.50;99.90;;;;;;5054180;28;20041;-84
2023/05/04 09:05:06;;;;;;;12.60;6.90;;;14.60;99.90;;;;;;5021841;28;20044;-84
2023/05/04 09:07:32;;;;;;;9.82;6.55;;;14.70;99.90;;;;;;5054943;28;20082;-84
2023/05/04 09:09:58;;;;;;;11.48;7.35;;;14.80;99.90;;;;;;5037761;28;20453;-84
2023/05/04 09:12:25;;;;;;;10.30;6.88;;;14.80;99.90;;;;;;5054292;28;20047;-84
2023/05/04 09:14:51;;;;;;;11.63;6.68;;;14.90;99.90;;;;;;5054686;28;20052;-84
2023/05/04 09:17:26;;;;;;;11.55;7.18;;;14.90;99.90;;;;;;5054526;28;20036;-83
2023/05/04 09:20:03;;;;;;;10.98;7.15;;;14.90;99.90;;;;;;5054490;28;20123;-85
2023/05/04 09:22:29;;;;;;;9.50;7.10;;;15.00;99.90;;;;;;5054630;28;20040;-83
2023/05/04 09:25:09;;;;;;;12.38;7.03;;;15.00;99.90;;;;;;5037634;28;20064;-83
2023/05/04 09:27:35;;;;;;;10.02;7.43;;;15.10;99.90;;;;;;5054188;28;20466;-84
2023/05/04 09:30:00;;;;;;;12.98;7.05;;;15.20;99.90;;;;;;5054205;28;20045;-84
2023/05/04 09:32:27;;;;;;;12.02;6.90;;;15.40;99.90;;;;;;5037696;28;20040;-84
2023/05/04 09:34:53;;;;;;;9.98;7.15;;;15.50;99.90;;;;;;5021506;28;20114;-84
2023/05/04 09:37:20;;;;;;;9.05;7.00;;;15.60;99.90;;;;;;5037650;28;20040;-84
2023/05/04 09:40:04;;;;;;;12.60;6.80;;;15.70;99.90;;;;;;5037520;28;20040;-84
2023/05/04 09:42:31;;;;;;;8.88;6.72;;;15.80;99.90;;;;;;5053695;28;20045;-83
2023/05/04 09:44:58;;;;;;;10.80;6.95;;;15.80;99.90;;;;;;5037700;28;20036;-84
2023/05/04 09:47:34;;;;;;;9.65;6.35;;;16.00;99.90;;;;;;5037400;28;20040;-84
2023/05/04 09:50:17;;;;;;;13.80;7.43;;;16.00;99.90;;;;;;5037048;28;20119;-83
2023/05/04 09:52:45;;;;;;;11.73;7.03;;;16.00;99.90;;;;;;5021762;28;20033;-84
2023/05/04 09:55:13;;;;;;;10.98;7.32;;;16.00;99.90;;;;;;5034517;28;20091;-85
2023/05/04 09:57:43;;;;;;;10.93;7.10;;;16.10;99.90;;;;;;5033813;28;20119;-83
2023/05/04 10:00:17;;;;;;;9.38;6.95;;;16.20;99.90;;;;;;5053405;28;20094;-86
2023/05/04 10:02:44;;;;;;;12.80;6.57;;;16.40;99.90;;;;;;5053626;28;20500;-85
2023/05/04 10:05:14;;;;;;;11.98;6.80;;;16.50;99.90;;;;;;5053836;28;20047;-84
2023/05/04 10:07:42;;;;;;;10.88;6.88;;;16.70;99.90;;;;;;5054059;28;20063;-84
2023/05/04 10:10:11;;;;;;;10.07;6.40;;;16.80;99.90;;;;;;5036839;28;20043;-82
2023/05/04 10:12:36;;;;;;;11.45;6.97;;;16.80;99.90;;;;;;5036050;28;20113;-83
2023/05/04 10:15:06;;;;;;;9.20;7.10;;;16.90;99.90;;;;;;5036540;28;20460;-83
2023/05/04 10:17:50;;;;;;;10.27;6.53;;;17.00;99.90;;;;;;5053826;28;20040;-83
2023/05/04 10:20:50;;;;;;;10.52;6.68;;;17.20;99.90;;;;;;5053388;28;20080;-83
2023/05/04 10:23:31;;;;;;;8.98;6.38;;;17.30;97.80;;;;;;5053365;28;20135;-83
2023/05/04 10:26:34;;;;;;;10.50;6.20;;;17.50;94.70;;;;;;5053466;28;20380;-83
2023/05/04 10:29:08;;;;;;;9.13;7.13;;;17.80;89.60;;;;;;5053261;28;20055;-83
2023/05/04 10:31:39;;;;;;;9.05;6.38;;;17.90;93.70;;;;;;5053344;28;20051;-83
2023/05/04 10:34:05;;;;;;;9.98;6.40;;;18.00;90.50;;;;;;5053373;28;20041;-84
2023/05/04 10:36:38;;;;;;;9.93;6.28;;;17.90;94.20;;;;;;5053199;28;20039;-83
2023/05/04 10:39:16;;;;;;;9.63;6.28;;;17.90;85.20;;;;;;5052563;28;20040;-84
2023/05/04 10:41:54;;;;;;;12.93;6.70;;;18.00;92.70;;;;;;5053912;28;20048;-84
2023/05/04 10:44:20;;;;;;;9.18;6.38;;;18.10;90.80;;;;;;5037278;28;20130;-83
2023/05/04 10:46:56;;;;;;;12.95;6.70;;;18.30;92.40;;;;;;5020571;28;20543;-84
2023/05/04 10:49:21;;;;;;;11.70;6.75;;;18.40;79.70;;;;;;5053468;28;20052;-84
2023/05/04 10:51:47;;;;;;;10.43;6.18;;;18.40;80.00;;;;;;5037089;28;20037;-83
2023/05/04 10:54:19;;;;;;;7.43;5.43;;;18.40;78.90;;;;;;5020578;28;20033;-83
2023/05/04 10:56:45;;;;;;;8.20;6.35;;;18.50;77.90;;;;;;5053384;28;20040;-84
2023/05/04 10:59:13;;;;;;;10.25;6.35;;;18.50;76.90;;;;;;5037004;28;20059;-83
2023/05/04 11:01:46;;;;;;;9.65;6.57;;;18.50;75.10;;;;;;5052840;28;20037;-84
2023/05/04 11:04:19;;;;;;;10.73;5.88;;;18.60;76.40;;;;;;5052825;28;20573;-82
2023/05/04 11:06:56;;;;;;;9.35;6.25;;;18.70;74.40;;;;;;5053100;28;20149;-84
2023/05/04 11:09:22;;;;;;;11.00;5.88;;;18.80;74.80;;;;;;5052790;28;20065;-82
2023/05/04 11:11:48;;;;;;;8.80;5.22;;;18.90;74.80;;;;;;5052384;28;20028;-83
2023/05/04 11:14:41;;;;;;;7.38;5.15;;;19.00;72.00;;;;;;5052578;28;20130;-83
2023/05/04 11:17:13;;;;;;;8.27;5.75;;;18.90;65.10;;;;;;5049866;28;20055;-85
2023/05/04 11:19:49;;;;;;;8.70;5.95;;;18.80;69.10;;;;;;5053189;28;20044;-85
2023/05/04 11:22:16;;;;;;;6.40;5.60;;;18.80;69.90;;;;;;5053209;28;20075;-83
2023/05/04 11:24:44;;;;;;;13.32;5.40;;;18.90;70.70;;;;;;5039746;28;20070;-84
2023/05/04 11:27:27;;;;;;;10.18;5.28;;;19.10;71.00;;;;;;5040438;28;20060;-85
2023/05/04 11:30:00;;;;;;;8.90;5.40;;;19.30;66.90;;;;;;5026883;28;20040;-85
2023/05/04 11:32:45;;;;;;;19.08;5.45;;;19.40;67.30;;;;;;5056982;28;20094;-85
2023/05/04 11:35:19;;;;;;;9.23;4.70;;;19.60;65.80;;;;;;5056813;28;20353;-88
2023/05/04 11:37:49;;;;;;;12.13;4.88;;;19.60;64.40;;;;;;5040443;28;20135;-82
2023/05/04 11:40:18;;;;;;;7.53;5.00;;;19.80;65.30;;;;;;5056506;28;20040;-83
2023/05/04 11:42:45;;;;;;;7.38;4.38;;;19.80;63.80;;;;;;5055952;28;20514;-83
2023/05/04 11:45:28;;;;;;;12.00;5.10;;;19.90;64.00;;;;;;5056630;28;20044;-82
2023/05/04 11:47:57;;;;;;;8.25;5.05;;;19.80;63.20;;;;;;5042134;28;20120;-83
2023/05/04 11:50:24;;;;;;;9.57;5.05;;;19.70;63.60;;;;;;5023563;28;20039;-83
2023/05/04 11:52:50;;;;;;;6.25;4.88;;;19.60;63.20;;;;;;5056094;28;20124;-82
2023/05/04 11:55:27;;;;;;;8.13;4.85;;;19.50;63.70;;;;;;5055776;28;20131;-82
2023/05/04 11:58:04;;;;;;;6.85;4.70;;;19.50;62.20;;;;;;5043765;28;20046;-82
2023/05/04 12:00:54;;;;;;;9.15;5.28;;;19.50;62.60;;;;;;5055647;28;20040;-83
2023/05/04 12:03:28;;;;;;;5.68;4.10;;;19.60;61.90;;;;;;5039247;28;20041;-82
2023/05/04 12:05:56;;;;;;;5.88;4.28;;;19.50;61.90;;;;;;5055407;28;20040;-82
2023/05/04 12:08:25;;;;;;;4.85;4.20;;;19.50;62.30;;;;;;5055493;28;20052;-82
2023/05/04 12:11:12;;;;;;;8.75;4.60;;;19.60;62.90;;;;;;5056388;28;20123;-85
2023/05/04 12:13:39;;;;;;;8.00;4.50;;;19.90;62.00;;;;;;5023111;28;20094;-84
2023/05/04 12:16:12;;;;;;;9.52;4.80;;;20.00;63.40;;;;;;5056789;28;20043;-81
2023/05/04 12:18:38;;;;;;;5.88;4.72;;;20.00;60.90;;;;;;5055794;28;20045;-84
2023/05/04 12:21:11;;;;;;;7.05;5.20;;;20.10;61.70;;;;;;5040124;28;20043;-83
2023/05/04 12:23:40;;;;;;;9.20;5.38;;;20.20;61.40;;;;;;5039220;28;20083;-85
2023/05/04 12:26:06;;;;;;;11.98;4.95;;;20.30;61.00;;;;;;5054945;28;20064;-83
2023/05/04 12:28:33;;;;;;;8.55;4.78;;;20.20;61.60;;;;;;5038043;28;20059;-84
2023/05/04 12:30:59;;;;;;;7.90;4.47;;;20.20;61.00;;;;;;5055730;28;20094;-83
2023/05/04 12:33:25;;;;;;;6.85;4.43;;;20.30;61.60;;;;;;5055891;28;20040;-83
2023/05/04 12:35:51;;;;;;;9.77;4.15;;;20.40;62.40;;;;;;5055153;28;20076;-84
2023/05/04 12:38:17;;;;;;;6.07;4.03;;;20.50;61.90;;;;;;5055612;28;20474;-84
2023/05/04 12:40:43;;;;;;;11.25;4.43;;;20.50;60.40;;;;;;5055612;28;20041;-84
2023/05/04 12:43:09;;;;;;;8.23;4.65;;;20.50;60.30;;;;;;5038965;28;20033;-83
2023/05/04 12:45:35;;;;;;;7.13;4.25;;;20.50;60.00;;;;;;5055681;28;20044;-84